createdAt,value
2022-12-25T00:02:23.273Z,121.10
2022-12-25T00:05:10.281Z,123.20
2022-12-25T00:08:11.275Z,116.20
2022-12-25T00:10:59.872Z,111.57
2022-12-25T00:13:47.436Z,115.93
2022-12-25T00:16:27.974Z,120.53
2022-12-25T00:18:57.073Z,117.80
2022-12-25T00:21:24.302Z,120.65
2022-12-25T00:24:12.395Z,115.97
2022-12-25T00:26:52.848Z,116.25
2022-12-25T00:29:19.992Z,119.63
2022-12-25T00:31:47.248Z,115.95
2022-12-25T00:34:14.605Z,115.03
2022-12-25T00:36:42.376Z,120.25
2022-12-25T00:39:29.267Z,112.57
2022-12-25T00:42:20.489Z,111.43
2022-12-25T00:44:49.352Z,119.32
2022-12-25T00:47:18.296Z,115.13
2022-12-25T00:49:45.496Z,110.20
2022-12-25T00:52:12.556Z,117.55
2022-12-25T00:54:59.347Z,113.85
2022-12-25T00:57:53.439Z,115.18
2022-12-25T01:00:33.981Z,118.53
2022-12-25T01:03:01.017Z,118.32
2022-12-25T01:05:48.264Z,119.47
2022-12-25T01:08:37.819Z,114.95
2022-12-25T01:11:07.651Z,117.43
2022-12-25T01:13:37.236Z,115.38
2022-12-25T01:16:09.875Z,114.90
2022-12-25T01:18:38.144Z,106.13
2022-12-25T01:21:13.364Z,111.53
2022-12-25T01:23:40.302Z,113.85
2022-12-25T01:26:09.186Z,115.18
2022-12-25T01:28:37.014Z,114.68
2022-12-25T01:31:05.879Z,115.20
2022-12-25T01:33:33.036Z,115.68
2022-12-25T01:36:00.163Z,116.38
2022-12-25T01:38:27.592Z,113.35
2022-12-25T01:41:14.326Z,109.15
2022-12-25T01:44:29.300Z,109.82
2022-12-25T01:47:10.013Z,112.00
2022-12-25T01:49:39.602Z,109.47
2022-12-25T01:52:13.420Z,107.30
2022-12-25T01:55:16.330Z,98.55
2022-12-25T01:57:58.105Z,105.05
2022-12-25T02:00:25.371Z,103.72
2022-12-25T02:02:52.561Z,105.90
2022-12-25T02:05:46.313Z,107.22
2022-12-25T02:08:27.238Z,104.93
2022-12-25T02:10:54.341Z,108.60
2022-12-25T02:13:22.508Z,103.68
2022-12-25T02:16:03.986Z,105.43
2022-12-25T02:18:43.926Z,102.47
2022-12-25T02:21:29.501Z,104.35
2022-12-25T02:24:19.369Z,101.07
2022-12-25T02:27:40.339Z,109.53
2022-12-25T02:30:22.312Z,96.40
2022-12-25T02:33:18.467Z,97.95
2022-12-25T02:35:53.986Z,93.00
2022-12-25T02:39:08.889Z,97.68
2022-12-25T02:41:59.540Z,91.05
2022-12-25T02:45:19.761Z,95.38
2022-12-25T02:48:05.568Z,91.30
2022-12-25T02:50:51.176Z,93.07
2022-12-25T02:53:56.521Z,91.80
2022-12-25T02:57:18.452Z,88.18
2022-12-25T03:00:20.542Z,90.03
2022-12-25T03:03:07.704Z,91.38
2022-12-25T03:06:17.689Z,89.03
2022-12-25T03:09:22.824Z,93.18
2022-12-25T03:12:31.352Z,90.88
2022-12-25T03:15:31.561Z,83.63
2022-12-25T03:18:03.725Z,92.93
2022-12-25T03:20:50.388Z,90.22
2022-12-25T03:23:41.078Z,87.97
2022-12-25T03:26:28.775Z,85.15
2022-12-25T03:28:57.830Z,81.95
2022-12-25T03:31:47.202Z,85.47
2022-12-25T03:34:43.890Z,83.70
2022-12-25T03:37:44.731Z,86.57
2022-12-25T03:41:06.408Z,85.18
2022-12-25T03:44:31.621Z,81.73
2022-12-25T03:47:24.283Z,82.30
2022-12-25T03:50:25.692Z,83.10
2022-12-25T03:53:35.443Z,86.32
2022-12-25T03:56:48.033Z,79.63
2022-12-25T04:03:43.820Z,75.57
2022-12-25T04:07:15.587Z,76.70
2022-12-25T04:10:26.763Z,72.15
2022-12-25T04:13:27.872Z,77.97
2022-12-25T04:16:19.878Z,74.55
2022-12-25T04:19:24.188Z,76.22
2022-12-25T04:22:12.906Z,72.00
2022-12-25T04:25:23.845Z,70.72
2022-12-25T04:31:47.210Z,70.20
2022-12-25T04:34:38.245Z,70.70
2022-12-25T04:37:15.410Z,63.42
2022-12-25T04:40:03.760Z,67.43
2022-12-25T04:43:14.267Z,67.57
2022-12-25T04:46:10.204Z,66.78
2022-12-25T04:48:44.800Z,70.47
2022-12-25T04:51:27.754Z,68.97
2022-12-25T04:54:20.569Z,65.68
2022-12-25T04:57:16.657Z,72.07
2022-12-25T05:00:01.868Z,65.43
2022-12-25T05:02:38.578Z,66.18
2022-12-25T05:06:07.225Z,69.47
2022-12-25T05:09:29.764Z,67.28
2022-12-25T05:12:31.001Z,71.10
2022-12-25T05:15:06.479Z,67.60
2022-12-25T05:17:47.640Z,67.70
2022-12-25T05:20:31.225Z,68.43
2022-12-25T05:23:05.909Z,70.30
2022-12-25T05:26:26.611Z,65.82
2022-12-25T05:29:17.437Z,75.07
2022-12-25T05:32:07.411Z,73.60
2022-12-25T05:34:41.566Z,70.90
2022-12-25T05:37:15.564Z,71.30
2022-12-25T05:40:11.667Z,73.72
2022-12-25T05:45:45.818Z,76.57
2022-12-25T05:48:27.164Z,72.07
2022-12-25T05:50:56.873Z,73.53
2022-12-25T05:54:01.721Z,71.28
2022-12-25T06:02:21.998Z,72.07
2022-12-25T06:05:22.765Z,69.55
2022-12-25T06:09:05.114Z,67.57
2022-12-25T06:12:52.889Z,71.15
2022-12-25T06:15:59.607Z,68.82
2022-12-25T06:19:05.871Z,67.57
2022-12-25T06:24:21.929Z,70.13
2022-12-25T06:26:52.248Z,75.22
2022-12-25T06:29:23.279Z,70.40
2022-12-25T06:32:13.092Z,71.88
2022-12-25T06:35:01.825Z,72.32
2022-12-25T06:37:39.542Z,66.25
2022-12-25T06:40:39.760Z,70.00
2022-12-25T06:43:28.256Z,71.00
2022-12-25T06:54:43.861Z,75.15
2022-12-25T06:57:59.839Z,71.40
2022-12-25T07:00:50.153Z,71.72
2022-12-25T07:10:13.944Z,70.35
2022-12-25T07:12:43.061Z,73.28
2022-12-25T07:15:30.785Z,70.43
2022-12-25T07:18:03.000Z,73.22
2022-12-25T07:20:41.842Z,71.18
2022-12-25T07:26:05.275Z,67.70
2022-12-25T07:40:15.152Z,64.32
2022-12-25T08:03:15.998Z,68.57
2022-12-25T08:06:27.119Z,73.85
2022-12-25T08:09:39.927Z,69.10
2022-12-25T08:12:35.869Z,69.47
2022-12-25T08:21:30.887Z,70.47
2022-12-25T08:30:23.737Z,64.75
2022-12-25T08:36:24.509Z,67.22
2022-12-25T08:41:55.523Z,72.35
2022-12-25T08:45:31.221Z,64.78
2022-12-25T08:48:26.065Z,63.55
2022-12-25T08:51:34.323Z,66.25
2022-12-25T08:54:55.406Z,64.33
2022-12-25T08:58:00.373Z,61.47
2022-12-25T09:01:10.908Z,68.28
2022-12-25T09:07:47.369Z,62.08
2022-12-25T09:13:30.634Z,67.30
2022-12-25T09:16:37.973Z,59.67
2022-12-25T09:19:38.829Z,59.05
2022-12-25T09:25:35.091Z,52.17
2022-12-25T09:28:43.686Z,54.38
2022-12-25T09:32:15.785Z,57.20
2022-12-25T09:38:30.446Z,59.28
2022-12-25T09:44:36.475Z,57.35
2022-12-25T09:47:30.711Z,58.90
2022-12-25T09:53:36.586Z,58.33
2022-12-25T09:59:40.569Z,57.30
2022-12-25T10:03:19.604Z,58.47
2022-12-25T10:17:06.053Z,59.30
2022-12-25T10:20:25.995Z,56.35
2022-12-25T10:23:13.547Z,59.50
2022-12-25T10:26:15.363Z,57.97
2022-12-25T10:40:45.740Z,55.03
2022-12-25T10:43:45.822Z,54.45
2022-12-25T10:46:42.261Z,56.78
2022-12-25T10:49:45.036Z,57.20
2022-12-25T10:56:28.618Z,60.10
2022-12-25T10:58:46.259Z,54.97
2022-12-25T11:05:53.401Z,56.72
2022-12-25T11:09:10.403Z,61.13
2022-12-25T11:11:53.628Z,55.78
2022-12-25T11:17:44.472Z,56.33
2022-12-25T11:23:24.396Z,58.85
2022-12-25T11:26:22.484Z,54.88
2022-12-25T11:29:14.720Z,54.30
2022-12-25T11:32:00.106Z,57.63
2022-12-25T11:38:20.988Z,57.05
2022-12-25T11:45:03.543Z,56.20
2022-12-25T11:48:00.793Z,59.45
2022-12-25T11:50:43.851Z,60.10
2022-12-25T11:58:08.128Z,56.70
2022-12-25T12:01:15.723Z,61.80
2022-12-25T12:04:55.583Z,56.92
2022-12-25T12:08:35.623Z,60.53
2022-12-25T12:12:44.901Z,59.63
2022-12-25T12:21:50.366Z,60.88
2022-12-25T12:25:09.802Z,59.17
2022-12-25T12:28:23.629Z,59.38
2022-12-25T12:37:44.143Z,60.00
2022-12-25T12:44:33.196Z,59.15
2022-12-25T12:51:36.434Z,60.30
2022-12-25T12:54:24.367Z,64.28
2022-12-25T12:57:48.315Z,68.43
2022-12-25T13:01:04.382Z,69.32
2022-12-25T13:04:26.587Z,72.30
2022-12-25T13:07:55.459Z,66.28
2022-12-25T13:15:01.889Z,63.17
2022-12-25T13:21:12.687Z,64.65
2022-12-25T13:24:36.382Z,64.57
2022-12-25T13:27:58.597Z,67.63
2022-12-25T13:31:05.201Z,65.72
2022-12-25T13:48:35.821Z,64.63
2022-12-25T13:54:32.402Z,61.10
2022-12-25T14:01:16.151Z,65.90
2022-12-25T14:07:44.570Z,63.65
2022-12-25T14:10:36.385Z,66.05
2022-12-25T14:13:30.070Z,66.68
2022-12-25T14:19:36.837Z,67.20
2022-12-25T14:22:39.956Z,65.43
2022-12-25T14:32:19.591Z,67.88
2022-12-25T14:38:39.426Z,64.70
2022-12-25T14:41:50.075Z,66.60
2022-12-25T14:48:25.780Z,68.07
2022-12-25T14:51:04.366Z,66.10
2022-12-25T14:54:02.998Z,67.25
2022-12-25T14:56:54.427Z,68.90
2022-12-25T15:00:01.754Z,65.50
2022-12-25T15:06:50.482Z,69.35
2022-12-25T15:10:47.106Z,65.00
2022-12-25T15:13:03.324Z,69.70
2022-12-25T15:16:29.195Z,71.88
2022-12-25T15:19:47.753Z,69.03
2022-12-25T15:25:18.429Z,66.65
2022-12-25T15:30:31.082Z,66.30
2022-12-25T15:33:43.747Z,68.50
2022-12-25T15:36:57.321Z,68.82
2022-12-25T15:43:52.253Z,68.28
2022-12-25T15:46:38.747Z,67.88
2022-12-25T15:49:50.439Z,72.82
2022-12-25T15:52:39.349Z,69.88
2022-12-25T15:56:21.769Z,71.35
2022-12-25T15:59:01.419Z,67.30
2022-12-25T16:16:03.535Z,71.57
2022-12-25T16:19:04.198Z,70.00
2022-12-25T16:29:05.005Z,76.40
2022-12-25T16:38:29.338Z,79.13
2022-12-25T16:47:44.039Z,77.47
2022-12-25T16:51:14.732Z,75.47
2022-12-25T16:54:28.583Z,75.38
2022-12-25T17:01:42.359Z,73.65
2022-12-25T17:05:02.714Z,76.35
2022-12-25T17:14:48.088Z,78.18
2022-12-25T17:20:55.368Z,74.32
2022-12-25T17:24:08.147Z,76.28
2022-12-25T17:27:15.835Z,81.72
2022-12-25T17:33:37.095Z,76.53
2022-12-25T17:36:40.976Z,79.50
2022-12-25T17:39:45.622Z,81.45
2022-12-25T17:45:17.589Z,77.82
2022-12-25T17:48:13.005Z,78.07
2022-12-25T17:54:25.313Z,82.88
2022-12-25T17:57:46.959Z,83.43
2022-12-25T18:01:36.822Z,83.40
2022-12-25T18:10:53.078Z,82.97
2022-12-25T18:14:15.103Z,80.03
2022-12-25T18:17:44.230Z,83.93
2022-12-25T18:21:16.384Z,83.80
2022-12-25T18:24:33.516Z,90.35
2022-12-25T18:27:18.250Z,86.85
2022-12-25T18:30:04.495Z,81.18
2022-12-25T18:33:04.383Z,89.20
2022-12-25T18:36:39.818Z,82.75
2022-12-25T18:42:39.239Z,85.22
2022-12-25T18:58:36.729Z,91.82
2022-12-25T19:01:26.670Z,85.95
2022-12-25T19:04:37.774Z,91.22
2022-12-25T19:12:31.264Z,85.75
2022-12-25T19:15:38.793Z,89.57
2022-12-25T19:18:56.958Z,83.03
2022-12-25T19:22:32.219Z,87.45
2022-12-25T19:28:28.620Z,87.85
2022-12-25T19:31:19.657Z,83.65
2022-12-25T19:35:15.929Z,78.60
2022-12-25T19:38:14.832Z,79.95
2022-12-25T19:41:37.656Z,79.03
2022-12-25T19:44:41.024Z,73.38
2022-12-25T19:50:18.923Z,74.30
2022-12-25T19:52:55.424Z,74.03
2022-12-25T19:55:47.763Z,69.18
2022-12-25T20:03:00.700Z,72.25
2022-12-25T20:06:32.295Z,73.07
2022-12-25T20:13:03.409Z,73.28
2022-12-25T20:15:44.904Z,70.90
2022-12-25T20:18:42.272Z,69.10
2022-12-25T20:30:28.275Z,64.55
2022-12-25T20:37:40.421Z,67.18
2022-12-25T20:44:57.674Z,69.40
2022-12-25T20:48:19.027Z,67.40
2022-12-25T20:51:36.421Z,64.13
2022-12-25T20:54:32.927Z,65.78
2022-12-25T20:57:18.953Z,64.03
2022-12-25T21:00:15.633Z,69.53
2022-12-25T21:03:01.852Z,65.22
2022-12-25T21:06:36.848Z,62.05
2022-12-25T21:19:39.984Z,60.67
2022-12-25T21:23:06.839Z,57.28
2022-12-25T21:29:17.305Z,56.50
2022-12-25T21:32:31.182Z,59.58
2022-12-25T21:35:20.973Z,60.35
2022-12-25T21:38:04.429Z,53.60
2022-12-25T21:41:07.449Z,53.53
2022-12-25T21:44:33.499Z,54.10
2022-12-25T21:47:13.344Z,52.90
2022-12-25T21:50:06.502Z,51.92
2022-12-25T21:53:13.865Z,50.40
2022-12-25T21:56:43.448Z,51.10
2022-12-25T21:59:24.358Z,49.70
2022-12-25T22:02:14.421Z,46.63
2022-12-25T22:09:38.788Z,42.20
2022-12-25T22:16:39.123Z,41.38
2022-12-25T22:19:53.055Z,45.05
2022-12-25T22:31:05.969Z,41.47
2022-12-25T22:40:39.349Z,43.60
2022-12-25T22:44:16.112Z,44.63
2022-12-25T22:47:13.020Z,40.10
2022-12-25T22:50:03.178Z,41.30
2022-12-25T22:52:37.429Z,43.63
2022-12-25T22:55:26.362Z,43.72
2022-12-25T22:58:47.907Z,45.63
2022-12-25T23:04:59.751Z,45.38
2022-12-25T23:07:56.858Z,47.25
2022-12-25T23:23:21.060Z,45.75
2022-12-25T23:26:17.562Z,45.25
2022-12-25T23:29:18.757Z,44.47
2022-12-25T23:31:59.856Z,46.80
2022-12-25T23:34:44.299Z,47.63
2022-12-25T23:37:41.468Z,49.20
2022-12-25T23:40:24.887Z,47.95
2022-12-25T23:43:24.222Z,48.05
2022-12-25T23:53:38.935Z,48.67
2022-12-25T23:56:28.848Z,46.55
2022-12-25T23:59:30.159Z,48.20
